KPOF

Poplar Bluff Municipal Airport

Poplar Bluff, Missouri, USA
METAR KPOF 191053Z AUTO 00000KT 7SM CLR 21/21 A2996 RMK AO2 SLP138 T02060206
Observed Flight Rules
Sep-19 @ 10:53 UTC (35 minutes ago) Visual Flight Rules
Visibility Clouds
7 miles
  • Clear skies
Temperatures Readings
Current 21°C / 70°F
Dewpoint 21°C / 70°F
Humidity 100%
Altimeter 29.96" Hg
Pressure 1013.8 hPa
Elevation 99
METAR KPOF 191053Z AUTO 00000KT 7SM CLR 21/21 A2996 RMK AO2 SLP138 T02060206
Observed Flight Rules
Sep-19 @ 10:53 UTC
(35 minutes ago)
VFR
Clouds
  • Clear skies
Temperature Dewpoint
21°C / 70°F 21°C / 70°F
Humidity Altimeter Pressure
100% 29.96" Hg 1013.8 hPa